sensor_id;sensor_type;location;lat;lon;timestamp;pressure;altitude;pressure_sealevel;temperature;humidity
39613;BME280;25303;48.896;13.342;2023-05-21T00:01:19;92824.44;;;16.50;58.70
39613;BME280;25303;48.896;13.342;2023-05-21T00:04:04;92818.41;;;16.50;58.70
39613;BME280;25303;48.896;13.342;2023-05-21T00:06:49;92824.63;;;16.49;58.65
39613;BME280;25303;48.896;13.342;2023-05-21T00:09:32;92818.81;;;16.47;58.93
39613;BME280;25303;48.896;13.342;2023-05-21T00:12:15;92817.81;;;16.48;58.89
39613;BME280;25303;48.896;13.342;2023-05-21T00:14:58;92812.63;;;16.48;58.76
39613;BME280;25303;48.896;13.342;2023-05-21T00:17:42;92817.03;;;16.47;58.56
39613;BME280;25303;48.896;13.342;2023-05-21T00:20:26;92814.03;;;16.44;58.89
39613;BME280;25303;48.896;13.342;2023-05-21T00:23:14;92813.41;;;16.42;58.64
39613;BME280;25303;48.896;13.342;2023-05-21T00:25:59;92811.97;;;16.39;58.89
39613;BME280;25303;48.896;13.342;2023-05-21T00:28:41;92805.19;;;16.38;58.63
39613;BME280;25303;48.896;13.342;2023-05-21T00:31:24;92802.97;;;16.35;58.62
39613;BME280;25303;48.896;13.342;2023-05-21T00:34:07;92796.34;;;16.32;58.92
39613;BME280;25303;48.896;13.342;2023-05-21T00:36:50;92789.56;;;16.31;58.55
39613;BME280;25303;48.896;13.342;2023-05-21T00:39:37;92788.97;;;16.29;58.56
39613;BME280;25303;48.896;13.342;2023-05-21T00:42:20;92790.56;;;16.30;58.33
39613;BME280;25303;48.896;13.342;2023-05-21T00:45:08;92791.56;;;16.29;58.42
39613;BME280;25303;48.896;13.342;2023-05-21T00:47:51;92788.75;;;16.24;58.53
39613;BME280;25303;48.896;13.342;2023-05-21T00:50:36;92784.91;;;16.20;58.37
39613;BME280;25303;48.896;13.342;2023-05-21T00:53:20;92783.31;;;16.19;58.30
39613;BME280;25303;48.896;13.342;2023-05-21T00:56:05;92779.94;;;16.18;58.26
39613;BME280;25303;48.896;13.342;2023-05-21T00:58:49;92786.13;;;16.17;58.50
39613;BME280;25303;48.896;13.342;2023-05-21T01:01:32;92775.53;;;16.19;58.14
39613;BME280;25303;48.896;13.342;2023-05-21T01:04:17;92782.09;;;16.15;58.38
39613;BME280;25303;48.896;13.342;2023-05-21T01:07:00;92775.69;;;16.10;58.14
39613;BME280;25303;48.896;13.342;2023-05-21T01:09:43;92777.06;;;16.06;58.35
39613;BME280;25303;48.896;13.342;2023-05-21T01:12:28;92767.28;;;16.08;58.32
39613;BME280;25303;48.896;13.342;2023-05-21T01:15:12;92771.66;;;16.08;58.34
39613;BME280;25303;48.896;13.342;2023-05-21T01:17:56;92770.88;;;16.07;58.07
39613;BME280;25303;48.896;13.342;2023-05-21T01:20:39;92770.88;;;16.07;58.12
39613;BME280;25303;48.896;13.342;2023-05-21T01:23:24;92760.91;;;16.11;57.63
39613;BME280;25303;48.896;13.342;2023-05-21T01:26:07;92760.13;;;16.10;57.65
39613;BME280;25303;48.896;13.342;2023-05-21T01:28:53;92758.50;;;16.09;57.59
39613;BME280;25303;48.896;13.342;2023-05-21T01:31:44;92763.09;;;16.07;57.59
39613;BME280;25303;48.896;13.342;2023-05-21T01:34:40;92758.47;;;16.03;57.40
39613;BME280;25303;48.896;13.342;2023-05-21T01:37:28;92759.88;;;16.05;57.53
39613;BME280;25303;48.896;13.342;2023-05-21T01:40:17;92756.91;;;16.08;57.55
39613;BME280;25303;48.896;13.342;2023-05-21T01:43:05;92752.50;;;16.09;57.44
39613;BME280;25303;48.896;13.342;2023-05-21T01:45:51;92757.91;;;16.07;57.45
39613;BME280;25303;48.896;13.342;2023-05-21T01:48:36;92755.91;;;16.09;57.29
39613;BME280;25303;48.896;13.342;2023-05-21T01:51:19;92755.72;;;16.11;57.27
39613;BME280;25303;48.896;13.342;2023-05-21T01:54:02;92748.13;;;16.09;57.04
39613;BME280;25303;48.896;13.342;2023-05-21T01:56:47;92753.13;;;16.11;56.99
39613;BME280;25303;48.896;13.342;2023-05-21T01:59:31;92755.72;;;16.11;57.26
39613;BME280;25303;48.896;13.342;2023-05-21T02:02:14;92757.69;;;16.09;57.10
39613;BME280;25303;48.896;13.342;2023-05-21T02:04:57;92756.09;;;16.08;57.37
39613;BME280;25303;48.896;13.342;2023-05-21T02:07:40;92758.06;;;16.06;57.47
39613;BME280;25303;48.896;13.342;2023-05-21T02:10:24;92757.66;;;16.02;57.43
39613;BME280;25303;48.896;13.342;2023-05-21T02:13:08;92766.44;;;16.01;57.52
39613;BME280;25303;48.896;13.342;2023-05-21T02:15:51;92763.22;;;15.99;57.49
39613;BME280;25303;48.896;13.342;2023-05-21T02:18:36;92760.63;;;15.99;57.70
39613;BME280;25303;48.896;13.342;2023-05-21T02:21:19;92757.84;;;15.94;57.96
39613;BME280;25303;48.896;13.342;2023-05-21T02:24:03;92754.63;;;15.92;57.75
39613;BME280;25303;48.896;13.342;2023-05-21T02:26:46;92750.44;;;15.91;57.98
39613;BME280;25303;48.896;13.342;2023-05-21T02:29:32;92752.03;;;15.92;58.39
39613;BME280;25303;48.896;13.342;2023-05-21T02:32:15;92748.81;;;15.90;58.17
39613;BME280;25303;48.896;13.342;2023-05-21T02:34:58;92740.63;;;15.86;57.96
39613;BME280;25303;48.896;13.342;2023-05-21T02:37:41;92751.16;;;15.85;58.15
39613;BME280;25303;48.896;13.342;2023-05-21T02:40:25;92753.94;;;15.83;58.44
39613;BME280;25303;48.896;13.342;2023-05-21T02:43:08;92751.00;;;15.86;57.88
39613;BME280;25303;48.896;13.342;2023-05-21T02:45:52;92757.97;;;15.86;57.94
39613;BME280;25303;48.896;13.342;2023-05-21T02:48:35;92745.94;;;15.85;57.95
39613;BME280;25303;48.896;13.342;2023-05-21T02:51:19;92744.34;;;15.84;58.13
39613;BME280;25303;48.896;13.342;2023-05-21T02:54:03;92748.13;;;15.81;57.99
39613;BME280;25303;48.896;13.342;2023-05-21T02:56:46;92748.34;;;15.79;58.29
39613;BME280;25303;48.896;13.342;2023-05-21T02:59:29;92753.91;;;15.76;58.31
39613;BME280;25303;48.896;13.342;2023-05-21T03:02:13;92743.91;;;15.73;58.75
39613;BME280;25303;48.896;13.342;2023-05-21T03:04:56;92746.09;;;15.70;58.55
39613;BME280;25303;48.896;13.342;2023-05-21T03:07:39;92745.66;;;15.66;58.66
39613;BME280;25303;48.896;13.342;2023-05-21T03:10:24;92737.25;;;15.64;58.79
39613;BME280;25303;48.896;13.342;2023-05-21T03:13:07;92742.63;;;15.62;58.84
39613;BME280;25303;48.896;13.342;2023-05-21T03:15:51;92741.03;;;15.61;59.13
39613;BME280;25303;48.896;13.342;2023-05-21T03:18:38;92731.22;;;15.57;59.09
39613;BME280;25303;48.896;13.342;2023-05-21T03:21:21;92729.63;;;15.56;58.94
39613;BME280;25303;48.896;13.342;2023-05-21T03:24:04;92722.03;;;15.54;58.97
39613;BME280;25303;48.896;13.342;2023-05-21T03:26:47;92734.19;;;15.54;59.10
39613;BME280;25303;48.896;13.342;2023-05-21T03:29:31;92733.41;;;15.53;58.78
39613;BME280;25303;48.896;13.342;2023-05-21T03:32:16;92737.00;;;15.52;58.55
39613;BME280;25303;48.896;13.342;2023-05-21T03:35:03;92729.22;;;15.52;58.78
39613;BME280;25303;48.896;13.342;2023-05-21T03:37:46;92730.00;;;15.53;58.68
39613;BME280;25303;48.896;13.342;2023-05-21T03:40:29;92728.00;;;15.55;58.80
39613;BME280;25303;48.896;13.342;2023-05-21T03:43:12;92732.00;;;15.57;58.72
39613;BME280;25303;48.896;13.342;2023-05-21T03:45:56;92730.84;;;15.60;58.57
39613;BME280;25303;48.896;13.342;2023-05-21T03:48:59;92728.66;;;15.63;58.50
39613;BME280;25303;48.896;13.342;2023-05-21T03:51:46;92734.66;;;15.64;58.45
39613;BME280;25303;48.896;13.342;2023-05-21T03:54:31;92734.47;;;15.65;58.58
39613;BME280;25303;48.896;13.342;2023-05-21T03:57:18;92728.09;;;15.68;58.25
39613;BME280;25303;48.896;13.342;2023-05-21T04:00:03;92732.50;;;15.68;58.36
39613;BME280;25303;48.896;13.342;2023-05-21T04:02:56;92730.31;;;15.71;58.35
39613;BME280;25303;48.896;13.342;2023-05-21T04:05:40;92730.56;;;15.76;58.24
39613;BME280;25303;48.896;13.342;2023-05-21T04:08:24;92734.34;;;15.80;58.28
39613;BME280;25303;48.896;13.342;2023-05-21T04:11:07;92738.75;;;15.80;58.13
39613;BME280;25303;48.896;13.342;2023-05-21T04:13:50;92731.16;;;15.78;58.37
39613;BME280;25303;48.896;13.342;2023-05-21T04:16:33;92737.16;;;15.79;58.17
39613;BME280;25303;48.896;13.342;2023-05-21T04:19:19;92742.56;;;15.84;58.34
39613;BME280;25303;48.896;13.342;2023-05-21T04:22:04;92742.03;;;15.89;58.34
39613;BME280;25303;48.896;13.342;2023-05-21T04:24:48;92746.84;;;15.92;58.06
39613;BME280;25303;48.896;13.342;2023-05-21T04:27:35;92743.41;;;15.91;58.37
39613;BME280;25303;48.896;13.342;2023-05-21T04:30:19;92746.63;;;15.93;57.99
39613;BME280;25303;48.896;13.342;2023-05-21T04:33:02;92749.84;;;15.95;58.17
39613;BME280;25303;48.896;13.342;2023-05-21T04:35:49;92756.44;;;15.98;58.21
39613;BME280;25303;48.896;13.342;2023-05-21T04:38:33;92749.09;;;16.02;57.72
39613;BME280;25303;48.896;13.342;2023-05-21T04:41:21;92749.28;;;16.07;57.88
39613;BME280;25303;48.896;13.342;2023-05-21T04:44:06;92750.09;;;16.07;57.94
39613;BME280;25303;48.896;13.342;2023-05-21T04:46:49;92759.13;;;16.12;58.09
39613;BME280;25303;48.896;13.342;2023-05-21T04:49:33;92752.72;;;16.14;57.92
39613;BME280;25303;48.896;13.342;2023-05-21T04:52:16;92753.34;;;16.16;57.68
39613;BME280;25303;48.896;13.342;2023-05-21T04:54:59;92755.75;;;16.18;57.63
39613;BME280;25303;48.896;13.342;2023-05-21T04:57:43;92761.38;;;16.21;57.84
39613;BME280;25303;48.896;13.342;2023-05-21T05:00:26;92758.34;;;16.24;57.74
39613;BME280;25303;48.896;13.342;2023-05-21T05:03:09;92753.59;;;16.28;57.61
39613;BME280;25303;48.896;13.342;2023-05-21T05:05:53;92761.81;;;16.32;57.53
39613;BME280;25303;48.896;13.342;2023-05-21T05:08:36;92755.63;;;16.39;57.62
39613;BME280;25303;48.896;13.342;2023-05-21T05:11:19;92755.25;;;16.43;57.53
39613;BME280;25303;48.896;13.342;2023-05-21T05:14:05;92754.88;;;16.46;57.59
39613;BME280;25303;48.896;13.342;2023-05-21T05:16:48;92755.44;;;16.48;57.53
39613;BME280;25303;48.896;13.342;2023-05-21T05:19:32;92767.69;;;16.54;57.41
39613;BME280;25303;48.896;13.342;2023-05-21T05:22:16;92760.09;;;16.59;57.39
39613;BME280;25303;48.896;13.342;2023-05-21T05:25:00;92755.72;;;16.66;57.14
39613;BME280;25303;48.896;13.342;2023-05-21T05:27:43;92756.69;;;16.65;57.23
39613;BME280;25303;48.896;13.342;2023-05-21T05:30:27;92751.72;;;16.70;56.87
39613;BME280;25303;48.896;13.342;2023-05-21T05:33:19;92758.53;;;16.78;56.86
39613;BME280;25303;48.896;13.342;2023-05-21T05:36:03;92763.16;;;16.83;56.66
39613;BME280;25303;48.896;13.342;2023-05-21T05:38:46;92762.38;;;16.89;56.68
39613;BME280;25303;48.896;13.342;2023-05-21T05:41:30;92761.38;;;16.90;56.63
39613;BME280;25303;48.896;13.342;2023-05-21T05:44:13;92772.41;;;16.99;56.13
39613;BME280;25303;48.896;13.342;2023-05-21T05:46:59;92756.59;;;17.00;56.28
39613;BME280;25303;48.896;13.342;2023-05-21T05:49:42;92760.63;;;17.10;55.52
39613;BME280;25303;48.896;13.342;2023-05-21T05:52:25;92763.41;;;17.15;55.91
39613;BME280;25303;48.896;13.342;2023-05-21T05:55:08;92764.84;;;17.18;55.54
39613;BME280;25303;48.896;13.342;2023-05-21T05:57:52;92759.81;;;17.23;55.56
39613;BME280;25303;48.896;13.342;2023-05-21T06:00:35;92762.25;;;17.24;55.35
39613;BME280;25303;48.896;13.342;2023-05-21T06:03:20;92770.66;;;17.33;55.55
39613;BME280;25303;48.896;13.342;2023-05-21T06:06:06;92768.44;;;17.37;55.34
39613;BME280;25303;48.896;13.342;2023-05-21T06:08:49;92771.25;;;17.42;55.24
39613;BME280;25303;48.896;13.342;2023-05-21T06:11:34;92774.84;;;17.48;55.14
39613;BME280;25303;48.896;13.342;2023-05-21T06:14:17;92774.84;;;17.48;54.79
39613;BME280;25303;48.896;13.342;2023-05-21T06:17:00;92778.25;;;17.55;54.80
39613;BME280;25303;48.896;13.342;2023-05-21T06:19:45;92769.44;;;17.62;55.04
39613;BME280;25303;48.896;13.342;2023-05-21T06:22:28;92774.66;;;17.69;54.55
39613;BME280;25303;48.896;13.342;2023-05-21T06:25:11;92766.41;;;17.72;54.34
39613;BME280;25303;48.896;13.342;2023-05-21T06:27:54;92767.81;;;17.82;54.25
39613;BME280;25303;48.896;13.342;2023-05-21T06:30:41;92772.41;;;17.86;54.40
39613;BME280;25303;48.896;13.342;2023-05-21T06:33:24;92763.81;;;17.92;54.23
39613;BME280;25303;48.896;13.342;2023-05-21T06:36:09;92770.03;;;17.98;54.64
39613;BME280;25303;48.896;13.342;2023-05-21T06:38:54;92769.00;;;18.06;54.65
39613;BME280;25303;48.896;13.342;2023-05-21T06:41:38;92773.59;;;18.11;54.32
39613;BME280;25303;48.896;13.342;2023-05-21T06:44:38;92766.56;;;18.18;53.94
39613;BME280;25303;48.896;13.342;2023-05-21T06:47:36;92767.72;;;18.29;53.71
39613;BME280;25303;48.896;13.342;2023-05-21T06:50:19;92769.88;;;18.38;54.03
39613;BME280;25303;48.896;13.342;2023-05-21T06:53:03;92766.06;;;18.48;53.75
39613;BME280;25303;48.896;13.342;2023-05-21T06:55:47;92764.44;;;18.53;53.51
39613;BME280;25303;48.896;13.342;2023-05-21T06:58:49;92775.38;;;18.69;53.23
39613;BME280;25303;48.896;13.342;2023-05-21T07:01:31;92773.13;;;18.79;52.20
39613;BME280;25303;48.896;13.342;2023-05-21T07:04:15;92773.47;;;18.96;52.04
39613;BME280;25303;48.896;13.342;2023-05-21T07:06:58;92770.78;;;19.10;51.25
39613;BME280;25303;48.896;13.342;2023-05-21T07:09:43;92764.88;;;19.21;50.52
39613;BME280;25303;48.896;13.342;2023-05-21T07:12:26;92775.97;;;19.42;51.24
39613;BME280;25303;48.896;13.342;2023-05-21T07:15:10;92758.59;;;19.54;50.19
39613;BME280;25303;48.896;13.342;2023-05-21T07:17:53;92769.75;;;19.68;49.62
39613;BME280;25303;48.896;13.342;2023-05-21T07:20:36;92773.41;;;19.86;49.97
39613;BME280;25303;48.896;13.342;2023-05-21T07:23:22;92759.44;;;19.99;49.25
39613;BME280;25303;48.896;13.342;2023-05-21T07:26:08;92770.19;;;20.09;48.60
39613;BME280;25303;48.896;13.342;2023-05-21T07:28:51;92768.44;;;20.22;48.36
39613;BME280;25303;48.896;13.342;2023-05-21T07:31:34;92774.56;;;20.34;47.84
39613;BME280;25303;48.896;13.342;2023-05-21T07:34:17;92763.22;;;20.40;47.42
39613;BME280;25303;48.896;13.342;2023-05-21T07:37:00;92765.66;;;20.54;47.77
39613;BME280;25303;48.896;13.342;2023-05-21T07:39:43;92759.81;;;20.58;47.38
39613;BME280;25303;48.896;13.342;2023-05-21T07:42:29;92762.25;;;20.72;46.94
39613;BME280;25303;48.896;13.342;2023-05-21T07:45:15;92766.75;;;20.83;47.08
39613;BME280;25303;48.896;13.342;2023-05-21T07:47:58;92769.16;;;20.85;46.57
39613;BME280;25303;48.896;13.342;2023-05-21T07:50:43;92763.84;;;20.91;46.21
39613;BME280;25303;48.896;13.342;2023-05-21T07:53:30;92771.00;;;20.96;46.77
39613;BME280;25303;48.896;13.342;2023-05-21T07:56:17;92772.91;;;20.89;46.03
39613;BME280;25303;48.896;13.342;2023-05-21T07:59:02;92760.75;;;20.94;45.71
39613;BME280;25303;48.896;13.342;2023-05-21T08:01:45;92766.34;;;20.98;46.13
39613;BME280;25303;48.896;13.342;2023-05-21T08:04:29;92770.47;;;21.06;45.95
39613;BME280;25303;48.896;13.342;2023-05-21T08:07:13;92769.00;;;21.10;45.94
39613;BME280;25303;48.896;13.342;2023-05-21T08:09:57;92771.16;;;21.13;45.54
39613;BME280;25303;48.896;13.342;2023-05-21T08:12:43;92770.72;;;21.16;45.53
39613;BME280;25303;48.896;13.342;2023-05-21T08:15:28;92761.06;;;21.17;44.94
39613;BME280;25303;48.896;13.342;2023-05-21T08:18:11;92766.31;;;21.29;45.61
39613;BME280;25303;48.896;13.342;2023-05-21T08:20:57;92771.53;;;21.29;44.26
39613;BME280;25303;48.896;13.342;2023-05-21T08:23:42;92764.38;;;21.24;43.02
39613;BME280;25303;48.896;13.342;2023-05-21T08:26:25;92763.25;;;21.32;44.20
39613;BME280;25303;48.896;13.342;2023-05-21T08:29:10;92764.72;;;21.28;43.95
39613;BME280;25303;48.896;13.342;2023-05-21T08:31:55;92780.41;;;21.28;43.89
39613;BME280;25303;48.896;13.342;2023-05-21T08:34:39;92775.75;;;21.30;43.57
39613;BME280;25303;48.896;13.342;2023-05-21T08:37:35;92767.59;;;21.38;43.29
39613;BME280;25303;48.896;13.342;2023-05-21T08:40:52;92769.19;;;21.39;43.00
39613;BME280;25303;48.896;13.342;2023-05-21T08:43:37;92774.22;;;21.52;42.99
39613;BME280;25303;48.896;13.342;2023-05-21T08:46:22;92770.00;;;21.51;42.33
39613;BME280;25303;48.896;13.342;2023-05-21T08:49:10;92771.53;;;21.71;42.77
39613;BME280;25303;48.896;13.342;2023-05-21T08:51:54;92761.06;;;21.83;42.52
39613;BME280;25303;48.896;13.342;2023-05-21T08:54:38;92759.44;;;21.94;42.74
39613;BME280;25303;48.896;13.342;2023-05-21T08:57:21;92758.66;;;21.93;41.70
39613;BME280;25303;48.896;13.342;2023-05-21T09:00:08;92774.50;;;21.87;40.65
39613;BME280;25303;48.896;13.342;2023-05-21T09:02:52;92769.16;;;21.93;40.75
39613;BME280;25303;48.896;13.342;2023-05-21T09:05:42;92769.38;;;21.92;39.62
39613;BME280;25303;48.896;13.342;2023-05-21T09:08:30;92762.63;;;21.96;39.93
39613;BME280;25303;48.896;13.342;2023-05-21T09:11:24;92768.13;;;22.06;40.06
39613;BME280;25303;48.896;13.342;2023-05-21T09:14:11;92756.81;;;22.18;40.38
39613;BME280;25303;48.896;13.342;2023-05-21T09:17:33;92757.38;;;22.31;40.25
39613;BME280;25303;48.896;13.342;2023-05-21T09:20:31;92769.91;;;22.41;40.47
39613;BME280;25303;48.896;13.342;2023-05-21T09:23:19;92764.63;;;22.53;39.95
39613;BME280;25303;48.896;13.342;2023-05-21T09:26:09;92764.47;;;22.72;39.42
39613;BME280;25303;48.896;13.342;2023-05-21T09:28:56;92762.94;;;22.88;39.41
39613;BME280;25303;48.896;13.342;2023-05-21T09:31:42;92759.97;;;23.13;39.30
39613;BME280;25303;48.896;13.342;2023-05-21T09:34:26;92757.69;;;23.34;39.32
39613;BME280;25303;48.896;13.342;2023-05-21T09:37:10;92758.09;;;23.43;38.45
39613;BME280;25303;48.896;13.342;2023-05-21T09:40:12;92767.19;;;23.69;37.94
39613;BME280;25303;48.896;13.342;2023-05-21T09:42:57;92756.75;;;23.91;36.91
39613;BME280;25303;48.896;13.342;2023-05-21T09:45:49;92767.09;;;24.15;36.58
39613;BME280;25303;48.896;13.342;2023-05-21T09:48:34;92754.53;;;24.39;36.83
39613;BME280;25303;48.896;13.342;2023-05-21T09:51:20;92754.91;;;24.48;36.38
39613;BME280;25303;48.896;13.342;2023-05-21T09:54:03;92755.75;;;24.76;36.57
39613;BME280;25303;48.896;13.342;2023-05-21T09:56:47;92757.97;;;24.84;35.69
39613;BME280;25303;48.896;13.342;2023-05-21T09:59:37;92758.41;;;25.03;35.42
39613;BME280;25303;48.896;13.342;2023-05-21T10:02:21;92771.31;;;25.32;35.64
39613;BME280;25303;48.896;13.342;2023-05-21T10:05:07;92777.63;;;25.54;33.92
39613;BME280;25303;48.896;13.342;2023-05-21T10:07:52;92760.88;;;25.70;34.66
39613;BME280;25303;48.896;13.342;2023-05-21T10:10:40;92764.69;;;25.90;34.41
39613;BME280;25303;48.896;13.342;2023-05-21T10:13:26;92769.25;;;26.00;34.28
39613;BME280;25303;48.896;13.342;2023-05-21T10:16:10;92756.09;;;26.05;33.79
39613;BME280;25303;48.896;13.342;2023-05-21T10:18:54;92757.53;;;26.23;33.30
39613;BME280;25303;48.896;13.342;2023-05-21T10:21:38;92756.84;;;26.43;32.99
39613;BME280;25303;48.896;13.342;2023-05-21T10:24:22;92757.09;;;26.42;31.81
39613;BME280;25303;48.896;13.342;2023-05-21T10:27:06;92750.97;;;26.26;30.79
39613;BME280;25303;48.896;13.342;2023-05-21T10:29:52;92758.22;;;26.08;31.29
39613;BME280;25303;48.896;13.342;2023-05-21T10:32:38;92746.44;;;25.83;30.88
39613;BME280;25303;48.896;13.342;2023-05-21T10:35:22;92741.03;;;26.00;32.08
39613;BME280;25303;48.896;13.342;2023-05-21T10:38:06;92744.66;;;25.89;32.11
39613;BME280;25303;48.896;13.342;2023-05-21T10:40:49;92742.63;;;26.01;31.93
39613;BME280;25303;48.896;13.342;2023-05-21T10:43:45;92746.50;;;26.31;31.82
39613;BME280;25303;48.896;13.342;2023-05-21T10:46:58;92747.94;;;26.65;30.99
39613;BME280;25303;48.896;13.342;2023-05-21T10:50:07;92737.22;;;26.82;30.11
39613;BME280;25303;48.896;13.342;2023-05-21T10:53:01;92743.72;;;26.59;30.43
39613;BME280;25303;48.896;13.342;2023-05-21T10:56:04;92745.84;;;26.62;29.17
39613;BME280;25303;48.896;13.342;2023-05-21T10:59:04;92736.31;;;26.56;29.87
39613;BME280;25303;48.896;13.342;2023-05-21T11:01:55;92741.75;;;26.97;30.18
39613;BME280;25303;48.896;13.342;2023-05-21T11:04:39;92744.16;;;27.14;29.74
39613;BME280;25303;48.896;13.342;2023-05-21T11:07:51;92734.69;;;27.34;29.08
39613;BME280;25303;48.896;13.342;2023-05-21T11:10:38;92743.97;;;27.57;29.05
39613;BME280;25303;48.896;13.342;2023-05-21T11:13:25;92743.16;;;27.67;29.34
39613;BME280;25303;48.896;13.342;2023-05-21T11:16:13;92734.69;;;27.75;28.65
39613;BME280;25303;48.896;13.342;2023-05-21T11:19:01;92744.47;;;27.95;29.14
39613;BME280;25303;48.896;13.342;2023-05-21T11:21:49;92734.09;;;28.25;27.48
39613;BME280;25303;48.896;13.342;2023-05-21T11:24:36;92723.44;;;28.50;26.58
39613;BME280;25303;48.896;13.342;2023-05-21T11:27:30;92719.72;;;28.52;26.98
39613;BME280;25303;48.896;13.342;2023-05-21T11:30:16;92720.28;;;28.43;27.24
39613;BME280;25303;48.896;13.342;2023-05-21T11:33:17;92731.34;;;28.56;26.48
39613;BME280;25303;48.896;13.342;2023-05-21T11:36:11;92729.91;;;28.18;26.01
39613;BME280;25303;48.896;13.342;2023-05-21T11:39:07;92729.09;;;28.23;25.98
39613;BME280;25303;48.896;13.342;2023-05-21T11:41:51;92721.78;;;28.70;27.43
39613;BME280;25303;48.896;13.342;2023-05-21T11:44:37;92713.59;;;29.11;26.28
39613;BME280;25303;48.896;13.342;2023-05-21T11:47:20;92719.28;;;29.34;26.97
39613;BME280;25303;48.896;13.342;2023-05-21T11:50:05;92717.28;;;29.61;25.69
39613;BME280;25303;48.896;13.342;2023-05-21T11:52:55;92722.44;;;28.96;24.28
39613;BME280;25303;48.896;13.342;2023-05-21T11:55:38;92720.97;;;28.70;24.88
39613;BME280;25303;48.896;13.342;2023-05-21T11:58:30;92715.56;;;28.25;25.43
39613;BME280;25303;48.896;13.342;2023-05-21T12:01:20;92715.75;;;28.54;25.04
39613;BME280;25303;48.896;13.342;2023-05-21T12:04:04;92723.16;;;28.57;25.91
39613;BME280;25303;48.896;13.342;2023-05-21T12:06:47;92723.00;;;28.93;26.30
39613;BME280;25303;48.896;13.342;2023-05-21T12:09:37;92717.31;;;28.55;25.55
39613;BME280;25303;48.896;13.342;2023-05-21T12:12:22;92729.22;;;28.63;25.92
39613;BME280;25303;48.896;13.342;2023-05-21T12:15:07;92729.19;;;28.73;25.99
39613;BME280;25303;48.896;13.342;2023-05-21T12:17:51;92726.00;;;28.76;24.60
39613;BME280;25303;48.896;13.342;2023-05-21T12:20:34;92725.47;;;29.19;25.10
39613;BME280;25303;48.896;13.342;2023-05-21T12:23:19;92724.91;;;29.28;24.59
39613;BME280;25303;48.896;13.342;2023-05-21T12:26:03;92728.44;;;29.18;24.11
39613;BME280;25303;48.896;13.342;2023-05-21T12:28:46;92725.78;;;29.13;24.25
39613;BME280;25303;48.896;13.342;2023-05-21T12:31:30;92713.03;;;29.20;24.16
39613;BME280;25303;48.896;13.342;2023-05-21T12:34:13;92709.75;;;29.33;24.08
39613;BME280;25303;48.896;13.342;2023-05-21T12:37:00;92723.78;;;29.34;24.30
39613;BME280;25303;48.896;13.342;2023-05-21T12:39:44;92722.28;;;29.22;24.00
39613;BME280;25303;48.896;13.342;2023-05-21T12:42:30;92718.78;;;28.87;24.12
39613;BME280;25303;48.896;13.342;2023-05-21T12:45:15;92720.50;;;29.13;23.36
39613;BME280;25303;48.896;13.342;2023-05-21T12:48:00;92718.72;;;28.37;23.52
39613;BME280;25303;48.896;13.342;2023-05-21T12:50:43;92721.31;;;28.53;24.67
39613;BME280;25303;48.896;13.342;2023-05-21T12:53:35;92714.53;;;28.91;23.69
39613;BME280;25303;48.896;13.342;2023-05-21T12:56:18;92714.47;;;29.02;23.60
39613;BME280;25303;48.896;13.342;2023-05-21T12:59:11;92716.13;;;29.32;23.76
39613;BME280;25303;48.896;13.342;2023-05-21T13:01:55;92714.78;;;29.40;23.90
39613;BME280;25303;48.896;13.342;2023-05-21T13:04:38;92704.91;;;29.46;23.46
39613;BME280;25303;48.896;13.342;2023-05-21T13:07:21;92708.69;;;29.69;23.70
39613;BME280;25303;48.896;13.342;2023-05-21T13:10:05;92716.81;;;29.83;23.71
39613;BME280;25303;48.896;13.342;2023-05-21T13:12:48;92710.56;;;29.68;23.28
39613;BME280;25303;48.896;13.342;2023-05-21T13:15:33;92715.81;;;29.74;23.87
39613;BME280;25303;48.896;13.342;2023-05-21T13:18:16;92702.81;;;29.77;23.09
39613;BME280;25303;48.896;13.342;2023-05-21T13:21:01;92686.84;;;30.07;23.38
39613;BME280;25303;48.896;13.342;2023-05-21T13:23:44;92700.25;;;30.45;23.90
39613;BME280;25303;48.896;13.342;2023-05-21T13:26:28;92694.44;;;30.67;23.62
39613;BME280;25303;48.896;13.342;2023-05-21T13:29:10;92697.53;;;30.50;23.24
39613;BME280;25303;48.896;13.342;2023-05-21T13:31:56;92694.88;;;30.50;21.71
39613;BME280;25303;48.896;13.342;2023-05-21T13:34:39;92696.53;;;29.92;23.08
39613;BME280;25303;48.896;13.342;2023-05-21T13:37:22;92683.56;;;29.61;22.76
39613;BME280;25303;48.896;13.342;2023-05-21T13:40:06;92693.47;;;29.80;23.48
39613;BME280;25303;48.896;13.342;2023-05-21T13:42:51;92689.66;;;29.91;23.25
39613;BME280;25303;48.896;13.342;2023-05-21T13:45:34;92694.13;;;29.96;22.82
39613;BME280;25303;48.896;13.342;2023-05-21T13:48:18;92690.16;;;29.98;22.82
39613;BME280;25303;48.896;13.342;2023-05-21T13:51:01;92697.19;;;29.49;22.13
39613;BME280;25303;48.896;13.342;2023-05-21T13:53:44;92685.38;;;29.36;22.80
39613;BME280;25303;48.896;13.342;2023-05-21T13:56:27;92693.75;;;29.09;22.47
39613;BME280;25303;48.896;13.342;2023-05-21T13:59:10;92694.38;;;28.95;22.86
39613;BME280;25303;48.896;13.342;2023-05-21T14:01:53;92694.06;;;29.02;22.99
39613;BME280;25303;48.896;13.342;2023-05-21T14:04:37;92693.44;;;28.65;23.10
39613;BME280;25303;48.896;13.342;2023-05-21T14:07:20;92696.78;;;28.26;23.58
39613;BME280;25303;48.896;13.342;2023-05-21T14:10:04;92700.03;;;27.82;24.17
39613;BME280;25303;48.896;13.342;2023-05-21T14:12:47;92689.16;;;28.19;24.50
39613;BME280;25303;48.896;13.342;2023-05-21T14:15:30;92695.84;;;28.62;24.30
39613;BME280;25303;48.896;13.342;2023-05-21T14:18:14;92683.47;;;29.02;23.77
39613;BME280;25303;48.896;13.342;2023-05-21T14:20:58;92684.31;;;29.32;23.40
39613;BME280;25303;48.896;13.342;2023-05-21T14:23:41;92698.09;;;29.34;23.73
39613;BME280;25303;48.896;13.342;2023-05-21T14:26:25;92695.13;;;29.01;23.76